^^
Meteo Knjazevac Station Historical Data
Daily Summary for August 9, 2021 Units:  Metric    English   Both
Daily Weekly Monthly Yearly Custom
  High: Low: Average:
Temperature: 15.4 °C 11.5 °C 12.8 °C
Dew Point: 14.6 °C 10.9 °C 12.1 °C
Humidity: 99% 91% 96%
Wind Speed: 4.8km/h 0km/h 1.9km/h
Wind Gust: 9.7km/h - -
Wind- - West
Pressure: 1018.2 hPa 1017.5 hPa -
Precipitation: 0 mm    
Historical Graphs
 
 
Tabular Data for August 9, 2021
Time Temperature Dew Point Pressure Wind Wind Speed Wind Gust Humidity Rainfall Rate (Hourly) solar Conditions
00:00 14.1 °C 12.7 °C 1018.2 hPa West 3.2 km/h 8 km/h 91% 0 mm 0 W/m2
00:10 13.9 °C 12.5 °C 1018.2 hPa West 4.8 km/h 9.7 km/h 91% 0 mm 0 W/m2
00:20 13.8 °C 12.3 °C 1018.2 hPa WSW 3.2 km/h 8 km/h 91% 0 mm 0 W/m2
00:30 13.5 °C 12.1 °C 1018.2 hPa WSW 3.2 km/h 8 km/h 91% 0 mm 0 W/m2
00:40 13.3 °C 12.2 °C 1018.2 hPa West 4.8 km/h 8 km/h 93% 0 mm 0 W/m2
00:50 13.2 °C 12.3 °C 1017.8 hPa WNW 4.8 km/h 9.7 km/h 94% 0 mm 0 W/m2
01:00 13.3 °C 12.3 °C 1017.8 hPa WNW 3.2 km/h 8 km/h 94% 0 mm 0 W/m2
01:10 13.3 °C 12.3 °C 1017.8 hPa West 3.2 km/h 6.4 km/h 94% 0 mm 0 W/m2
01:20 13.3 °C 12.3 °C 1017.8 hPa WSW 1.6 km/h 4.8 km/h 94% 0 mm 0 W/m2
01:30 13.1 °C 12.2 °C 1017.8 hPa SW 3.2 km/h 4.8 km/h 94% 0 mm 0 W/m2
01:40 13.1 °C 12.2 °C 1017.8 hPa WSW 4.8 km/h 8 km/h 94% 0 mm 0 W/m2
01:50 13.1 °C 12.3 °C 1017.8 hPa West 4.8 km/h 8 km/h 95% 0 mm 0 W/m2
02:00 13.1 °C 12.3 °C 1017.8 hPa Calm   6.4 km/h 95% 0 mm 0 W/m2
02:10 13.2 °C 12.4 °C 1017.8 hPa SW 1.6 km/h 3.2 km/h 95% 0 mm 0 W/m2
02:20 13.1 °C 12.3 °C 1017.8 hPa WSW 1.6 km/h 3.2 km/h 95% 0 mm 0 W/m2
02:30 13 °C 12.2 °C 1017.8 hPa WNW 1.6 km/h 3.2 km/h 95% 0 mm 0 W/m2
02:40 13 °C 12.2 °C 1017.8 hPa Calm   4.8 km/h 95% 0 mm 0 W/m2
02:50 13 °C 12.2 °C 1017.8 hPa WNW 1.6 km/h 3.2 km/h 95% 0 mm 0 W/m2
03:00 12.9 °C 12.1 °C 1017.8 hPa Calm   3.2 km/h 95% 0 mm 0 W/m2
03:10 12.8 °C 12 °C 1017.8 hPa Calm   1.6 km/h 95% 0 mm 0 W/m2
03:20 12.8 °C 12 °C 1017.8 hPa Calm   1.6 km/h 95% 0 mm 0 W/m2
03:30 12.8 °C 12 °C 1017.8 hPa Calm   1.6 km/h 95% 0 mm 0 W/m2
03:40 12.7 °C 11.8 °C 1017.5 hPa West 1.6 km/h 3.2 km/h 94% 0 mm 0 W/m2
03:50 12.4 °C 11.4 °C 1017.5 hPa Calm   3.2 km/h 94% 0 mm 0 W/m2
04:00 12.2 °C 11.4 °C 1017.8 hPa West 3.2 km/h 4.8 km/h 95% 0 mm 0 W/m2
04:10 12.1 °C 11.3 °C 1017.5 hPa West 3.2 km/h 6.4 km/h 95% 0 mm 0 W/m2
04:20 12.1 °C 11.5 °C 1017.8 hPa NW 1.6 km/h 4.8 km/h 96% 0 mm 0 W/m2
04:30 11.9 °C 11.3 °C 1017.5 hPa Calm   4.8 km/h 96% 0 mm 0 W/m2
04:40 11.9 °C 11.3 °C 1017.5 hPa WSW 1.6 km/h 3.2 km/h 96% 0 mm 0 W/m2
04:50 11.7 °C 11.1 °C 1017.8 hPa SW 1.6 km/h 3.2 km/h 96% 0 mm 3 W/m2
05:00 11.6 °C 11 °C 1017.8 hPa West 1.6 km/h 3.2 km/h 96% 0 mm 7 W/m2
05:10 11.7 °C 11.4 °C 1017.8 hPa West 3.2 km/h 8 km/h 98% 0 mm 14 W/m2
05:20 11.7 °C 11.4 °C 1017.8 hPa WNW 1.6 km/h 4.8 km/h 98% 0 mm 24 W/m2
05:30 11.6 °C 11 °C 1017.8 hPa Calm   3.2 km/h 96% 0 mm 35 W/m2
05:40 11.6 °C 11 °C 1017.8 hPa West 1.6 km/h 3.2 km/h 96% 0 mm 47 W/m2
05:50 11.5 °C 10.9 °C 1018.2 hPa West 1.6 km/h 3.2 km/h 96% 0 mm 51 W/m2
06:00 11.6 °C 11.3 °C 1017.8 hPa Calm   3.2 km/h 98% 0 mm 60 W/m2
06:10 11.7 °C 11.4 °C 1018.2 hPa Calm   3.2 km/h 98% 0 mm 116 W/m2
06:20 11.9 °C 11.6 °C 1018.2 hPa Calm   3.2 km/h 98% 0 mm 141 W/m2
06:30 12 °C 11.7 °C 1018.2 hPa WNW 1.6 km/h 3.2 km/h 98% 0 mm 162 W/m2
06:40 12.2 °C 12.1 °C 1017.8 hPa NW 1.6 km/h 3.2 km/h 99% 0 mm 192 W/m2
06:50 12.5 °C 12.3 °C 1017.8 hPa West 3.2 km/h 6.4 km/h 99% 0 mm 224 W/m2
07:00 12.8 °C 12.7 °C 1017.8 hPa NW 1.6 km/h 4.8 km/h 99% 0 mm 256 W/m2
07:10 13.1 °C 12.9 °C 1017.8 hPa Calm   3.2 km/h 99% 0 mm 286 W/m2
07:20 13.5 °C 13.3 °C 1017.8 hPa West 3.2 km/h 3.2 km/h 99% 0 mm 317 W/m2
07:30 14 °C 13.8 °C 1017.8 hPa WSW 1.6 km/h 4.8 km/h 99% 0 mm 356 W/m2
07:40 14.4 °C 14.1 °C 1017.8 hPa West 3.2 km/h 8 km/h 98% 0 mm 393 W/m2
07:50 14.9 °C 14.1 °C 1017.8 hPa West 1.6 km/h 8 km/h 95% 0 mm 425 W/m2
08:00 15.4 °C 14.6 °C 1017.8 hPa WSW 3.2 km/h 6.4 km/h 95% 0 mm 459 W/m2
Knjazevac, Serbia
Compliments of Weather Underground - 2 mb